Time;durP1;ratioP1;P1;durP2;ratioP2;P2;SDS_P1;SDS_P2;PMS_P1;PMS_P2;Temp;Humidity;BMP_temperature;BMP_pressure;BME280_temperature;BME280_humidity;BME280_pressure;Samples;Min_cycle;Max_cycle;Signal;HPM_P1;HPM_P2
2022/06/20 00:00:20;;;;;;;1.20;1.10;;;21.00;99.90;;;;;;5113989;28;20462;-57
2022/06/20 00:02:49;;;;;;;1.20;1.10;;;21.00;99.90;;;;;;5113617;28;20051;-57
2022/06/20 00:05:20;;;;;;;1.33;1.23;;;21.00;99.50;;;;;;5113929;28;20019;-59
2022/06/20 00:07:46;;;;;;;1.88;1.20;;;21.00;99.70;;;;;;5113857;28;20019;-57
2022/06/20 00:10:14;;;;;;;1.30;1.15;;;21.00;99.70;;;;;;5113997;28;20027;-57
2022/06/20 00:12:40;;;;;;;1.23;1.13;;;21.00;99.80;;;;;;5114199;28;20398;-56
2022/06/20 00:15:06;;;;;;;1.83;1.40;;;21.00;99.50;;;;;;5113820;28;20029;-59
2022/06/20 00:17:32;;;;;;;1.30;1.20;;;20.90;99.50;;;;;;5113520;28;20102;-54
2022/06/20 00:19:58;;;;;;;1.50;1.40;;;20.90;99.30;;;;;;5113731;28;20160;-59
2022/06/20 00:22:23;;;;;;;1.33;1.23;;;20.90;99.30;;;;;;5113672;28;20077;-58
2022/06/20 00:24:50;;;;;;;1.27;1.17;;;20.90;99.50;;;;;;5113591;28;20023;-56
2022/06/20 00:27:15;;;;;;;1.65;1.30;;;20.90;99.70;;;;;;5113601;28;20493;-58
2022/06/20 00:29:43;;;;;;;1.63;1.23;;;20.80;99.80;;;;;;5113865;28;20031;-56
2022/06/20 00:32:10;;;;;;;1.52;1.42;;;20.80;99.90;;;;;;5113368;28;20517;-59
2022/06/20 00:34:36;;;;;;;1.55;1.45;;;20.80;99.90;;;;;;5113561;28;20035;-54
2022/06/20 00:37:04;;;;;;;1.00;1.00;;;20.80;99.90;;;;;;5113868;28;20039;-56
2022/06/20 00:39:29;;;;;;;1.45;1.35;;;20.70;99.90;;;;;;5113410;28;20019;-56
2022/06/20 00:41:55;;;;;;;1.15;1.10;;;20.70;99.90;;;;;;5113701;28;20069;-56
2022/06/20 00:44:42;;;;;;;1.52;1.42;;;20.70;99.90;;;;;;5113842;28;20024;-59
2022/06/20 00:47:12;;;;;;;1.38;1.27;;;20.70;99.90;;;;;;5113295;28;20501;-55
2022/06/20 00:50:11;;;;;;;1.58;1.48;;;20.60;99.90;;;;;;5113357;28;20490;-58
2022/06/20 00:52:51;;;;;;;1.42;1.33;;;20.60;99.90;;;;;;5093717;28;20042;-59
2022/06/20 00:55:31;;;;;;;1.58;1.48;;;20.50;99.90;;;;;;5117397;28;20024;-56
2022/06/20 00:58:22;;;;;;;1.88;1.10;;;20.40;99.90;;;;;;5117239;28;20447;-56
2022/06/20 01:00:48;;;;;;;1.90;1.73;;;20.40;99.90;;;;;;5117193;28;20019;-52
2022/06/20 01:03:20;;;;;;;1.35;1.25;;;20.40;99.90;;;;;;5117426;28;20381;-57
2022/06/20 01:05:54;;;;;;;1.42;1.10;;;20.20;99.90;;;;;;5117147;28;20054;-59
2022/06/20 01:08:29;;;;;;;1.35;1.25;;;20.20;99.90;;;;;;5117497;28;20058;-58
2022/06/20 01:11:02;;;;;;;1.30;1.20;;;20.20;99.90;;;;;;5117184;28;20088;-56
2022/06/20 01:13:29;;;;;;;1.35;1.25;;;20.20;99.90;;;;;;5117436;28;20058;-57
2022/06/20 01:16:19;;;;;;;2.85;1.45;;;20.20;99.90;;;;;;5117138;28;20077;-55
2022/06/20 01:18:47;;;;;;;1.42;1.25;;;20.10;99.90;;;;;;5103276;28;20040;-56
2022/06/20 01:21:16;;;;;;;2.05;1.90;;;20.20;99.90;;;;;;5117047;28;20045;-59
2022/06/20 01:24:23;;;;;;;1.45;1.10;;;20.10;99.90;;;;;;5117152;28;20430;-56
2022/06/20 01:27:26;;;;;;;1.42;1.20;;;20.10;99.90;;;;;;5116837;28;20045;-58
2022/06/20 01:29:52;;;;;;;1.25;1.15;;;20.10;99.90;;;;;;5094294;28;20036;-57
2022/06/20 01:32:18;;;;;;;1.95;1.40;;;20.10;99.90;;;;;;5117072;28;20464;-56
2022/06/20 01:34:44;;;;;;;1.77;1.42;;;20.00;99.90;;;;;;5116741;28;20470;-59
2022/06/20 01:37:25;;;;;;;2.50;1.38;;;20.00;99.90;;;;;;5116665;28;20489;-59
2022/06/20 01:39:55;;;;;;;1.23;1.10;;;20.00;99.90;;;;;;5116937;28;20147;-57
2022/06/20 01:42:23;;;;;;;1.17;1.08;;;19.90;99.90;;;;;;5116555;28;20027;-55
2022/06/20 01:44:58;;;;;;;1.30;1.20;;;19.90;99.90;;;;;;5116516;28;20061;-58
2022/06/20 01:47:24;;;;;;;1.23;1.13;;;19.90;99.90;;;;;;5116761;28;20019;-58
2022/06/20 01:49:55;;;;;;;1.30;1.20;;;19.90;99.90;;;;;;5116308;28;20543;-59
2022/06/20 01:52:35;;;;;;;1.05;0.95;;;19.90;99.90;;;;;;5116370;28;20498;-59
2022/06/20 01:55:06;;;;;;;2.83;1.13;;;19.90;99.90;;;;;;5116303;28;20466;-57
2022/06/20 01:57:35;;;;;;;1.17;1.08;;;19.80;99.90;;;;;;5115928;28;20052;-55
2022/06/20 02:00:11;;;;;;;1.30;0.90;;;19.70;99.90;;;;;;5116476;28;20460;-59
2022/06/20 02:02:44;;;;;;;1.08;1.00;;;19.70;99.90;;;;;;5116299;28;20043;-59
2022/06/20 02:05:14;;;;;;;0.90;0.90;;;19.70;99.90;;;;;;5115316;28;20055;-57
2022/06/20 02:07:41;;;;;;;0.80;0.80;;;19.70;99.90;;;;;;5116201;28;20023;-56
2022/06/20 02:10:10;;;;;;;1.45;1.13;;;19.70;99.90;;;;;;5116219;28;20024;-56
2022/06/20 02:12:40;;;;;;;1.10;1.00;;;19.70;99.90;;;;;;5115866;28;20016;-59
2022/06/20 02:15:07;;;;;;;1.20;1.10;;;19.70;99.90;;;;;;5116200;28;20081;-58
2022/06/20 02:17:39;;;;;;;1.15;1.08;;;19.70;99.90;;;;;;5115934;28;20106;-56
2022/06/20 02:20:12;;;;;;;1.10;1.00;;;19.70;99.90;;;;;;5115784;28;20079;-57
2022/06/20 02:22:40;;;;;;;1.10;1.00;;;19.60;99.90;;;;;;5115800;28;20491;-57
2022/06/20 02:25:13;;;;;;;0.95;0.90;;;19.60;99.90;;;;;;5115779;28;20028;-57
2022/06/20 02:27:43;;;;;;;0.80;0.80;;;19.60;99.90;;;;;;5115469;28;20020;-55
2022/06/20 02:30:11;;;;;;;1.30;1.20;;;19.60;99.90;;;;;;5115645;28;20032;-55
2022/06/20 02:32:40;;;;;;;1.33;1.00;;;19.50;99.90;;;;;;5115875;28;20035;-56
2022/06/20 02:35:11;;;;;;;1.23;1.13;;;19.50;99.90;;;;;;5115521;28;20020;-55
2022/06/20 02:37:38;;;;;;;1.10;1.00;;;19.60;99.90;;;;;;5115776;28;20023;-57
2022/06/20 02:40:07;;;;;;;1.20;1.10;;;19.50;99.90;;;;;;5115462;28;20023;-57
2022/06/20 02:42:39;;;;;;;0.90;0.90;;;19.60;99.90;;;;;;5115482;28;20027;-56
2022/06/20 02:45:10;;;;;;;1.05;1.02;;;19.60;99.90;;;;;;5115369;28;20030;-54
2022/06/20 02:47:48;;;;;;;1.08;0.98;;;19.50;99.90;;;;;;5115722;28;20430;-57
2022/06/20 02:50:23;;;;;;;1.10;1.00;;;19.50;99.90;;;;;;5115302;28;20027;-53
2022/06/20 02:52:57;;;;;;;1.42;1.20;;;19.50;99.90;;;;;;5115186;28;20466;-57
2022/06/20 02:55:24;;;;;;;1.25;1.08;;;19.50;99.90;;;;;;5115111;28;20508;-57
2022/06/20 02:57:54;;;;;;;1.38;1.27;;;19.50;99.90;;;;;;5114732;28;20557;-59
2022/06/20 03:00:33;;;;;;;1.70;1.40;;;19.40;99.90;;;;;;5115361;28;20436;-59
2022/06/20 03:03:06;;;;;;;1.55;1.45;;;19.40;99.90;;;;;;5115153;28;20020;-58
2022/06/20 03:05:31;;;;;;;1.38;1.10;;;19.40;99.90;;;;;;5115013;28;20538;-57
2022/06/20 03:07:57;;;;;;;1.20;1.10;;;19.30;99.90;;;;;;5114854;28;20019;-57
2022/06/20 03:10:33;;;;;;;1.27;1.17;;;19.30;99.90;;;;;;5114876;28;20052;-57
2022/06/20 03:12:59;;;;;;;2.67;1.10;;;19.20;99.90;;;;;;5114835;28;20559;-57
2022/06/20 03:15:25;;;;;;;1.20;1.10;;;19.30;99.90;;;;;;5114566;28;20058;-57
2022/06/20 03:17:53;;;;;;;1.20;1.10;;;19.20;99.90;;;;;;5114756;28;20552;-57
2022/06/20 03:20:21;;;;;;;1.15;1.05;;;19.30;99.90;;;;;;5114703;28;20028;-55
2022/06/20 03:23:09;;;;;;;2.38;1.20;;;19.20;99.90;;;;;;5114610;28;20038;-57
2022/06/20 03:25:37;;;;;;;1.30;1.20;;;19.20;99.90;;;;;;5114653;28;20387;-59
2022/06/20 03:28:04;;;;;;;1.15;1.00;;;19.20;99.90;;;;;;5114472;28;20028;-58
2022/06/20 03:30:35;;;;;;;1.70;1.10;;;19.20;99.90;;;;;;5114517;28;20019;-57
2022/06/20 03:33:04;;;;;;;1.20;1.10;;;19.20;99.90;;;;;;5114392;28;20030;-59
2022/06/20 03:35:31;;;;;;;1.05;1.05;;;19.20;99.90;;;;;;5114523;28;20018;-59
2022/06/20 03:38:03;;;;;;;1.17;1.17;;;19.20;99.90;;;;;;5114266;28;20111;-57
2022/06/20 03:40:30;;;;;;;1.10;1.10;;;19.10;99.90;;;;;;5113980;28;20470;-57
2022/06/20 03:42:58;;;;;;;1.77;1.23;;;19.10;99.90;;;;;;5114245;28;20023;-58
2022/06/20 03:45:28;;;;;;;1.20;1.10;;;19.10;99.90;;;;;;5114289;28;20016;-57
2022/06/20 03:48:04;;;;;;;1.42;1.27;;;19.20;99.90;;;;;;5114046;28;20039;-57
2022/06/20 03:50:42;;;;;;;1.23;1.13;;;19.20;99.90;;;;;;5114390;28;20057;-57
2022/06/20 03:53:24;;;;;;;1.63;1.30;;;19.20;99.90;;;;;;5114292;28;20039;-54
2022/06/20 03:56:01;;;;;;;1.87;1.67;;;19.20;99.90;;;;;;5113751;28;20031;-53
2022/06/20 03:58:38;;;;;;;1.75;1.30;;;19.20;99.90;;;;;;5113771;28;20120;-55
2022/06/20 04:01:11;;;;;;;1.90;1.20;;;19.20;99.90;;;;;;5114086;28;20099;-55
2022/06/20 04:03:43;;;;;;;1.60;1.50;;;19.20;99.90;;;;;;5113950;28;20024;-58
2022/06/20 04:06:27;;;;;;;1.67;1.50;;;19.20;99.90;;;;;;5113901;28;20027;-57
2022/06/20 04:12:23;;;;;;;1.52;1.42;;;19.20;99.90;;;;;;5114027;28;20038;-58
2022/06/20 04:14:55;;;;;;;2.13;1.23;;;19.20;99.90;;;;;;5114099;28;20019;-56
2022/06/20 04:20:27;;;;;;;2.08;1.88;;;19.20;99.90;;;;;;5113733;28;20039;-58
2022/06/20 04:22:54;;;;;;;1.88;1.77;;;19.30;99.90;;;;;;5114008;28;20473;-58
2022/06/20 04:25:25;;;;;;;2.75;2.05;;;19.40;99.90;;;;;;5113571;28;20023;-57
2022/06/20 04:28:14;;;;;;;2.10;2.00;;;19.40;99.90;;;;;;5118977;28;20027;-57
2022/06/20 04:30:45;;;;;;;4.05;2.30;;;19.40;99.90;;;;;;5120574;28;20363;-56
2022/06/20 04:33:36;;;;;;;2.75;2.10;;;19.50;99.90;;;;;;5120653;28;20043;-58
2022/06/20 04:36:24;;;;;;;2.35;1.95;;;19.50;99.90;;;;;;5120373;28;20470;-57
2022/06/20 04:39:15;;;;;;;2.22;1.98;;;19.40;99.90;;;;;;5120422;28;20039;-57
2022/06/20 04:41:48;;;;;;;2.22;2.13;;;19.40;99.90;;;;;;5120272;28;20076;-55
2022/06/20 04:44:33;;;;;;;2.40;2.20;;;19.40;99.90;;;;;;5120356;28;20030;-54
2022/06/20 04:47:16;;;;;;;2.28;2.10;;;19.40;99.90;;;;;;5120312;28;20023;-59
2022/06/20 04:49:42;;;;;;;3.20;2.22;;;19.30;99.90;;;;;;5120323;28;20027;-57
2022/06/20 04:52:14;;;;;;;2.25;1.90;;;19.30;99.90;;;;;;5120220;28;20032;-58
2022/06/20 04:54:40;;;;;;;2.05;1.90;;;19.30;99.90;;;;;;5124975;27;20629;-57
2022/06/20 04:57:09;;;;;;;3.10;2.40;;;19.40;99.90;;;;;;5139030;27;20558;-57
2022/06/20 04:59:36;;;;;;;2.00;1.90;;;19.40;99.90;;;;;;5135245;27;20488;-59
2022/06/20 05:02:05;;;;;;;2.50;1.60;;;19.50;99.90;;;;;;5123822;27;20055;-57
2022/06/20 05:04:37;;;;;;;2.22;2.03;;;19.60;99.90;;;;;;5123810;27;20189;-61
2022/06/20 05:07:07;;;;;;;2.35;1.90;;;19.70;99.90;;;;;;5127548;27;20485;-57
2022/06/20 05:09:44;;;;;;;2.13;1.63;;;19.80;99.90;;;;;;5124707;27;20134;-54
2022/06/20 05:12:32;;;;;;;3.33;2.53;;;19.90;99.90;;;;;;5129838;27;20038;-56
2022/06/20 05:15:11;;;;;;;2.00;1.83;;;19.90;99.90;;;;;;5128475;27;20113;-58
2022/06/20 05:17:40;;;;;;;2.20;2.00;;;20.00;99.90;;;;;;5139335;27;20038;-54
2022/06/20 05:20:25;;;;;;;1.92;1.83;;;20.00;99.90;;;;;;5136767;27;20019;-56
2022/06/20 05:23:05;;;;;;;2.47;1.90;;;20.10;99.90;;;;;;5119669;28;20034;-59
2022/06/20 05:25:32;;;;;;;1.80;1.63;;;20.20;99.90;;;;;;5120293;28;20031;-57
2022/06/20 05:28:02;;;;;;;1.70;1.60;;;20.40;99.90;;;;;;5120146;28;20080;-59
2022/06/20 05:30:33;;;;;;;2.90;1.60;;;20.40;99.90;;;;;;5120066;28;20465;-59
2022/06/20 05:33:22;;;;;;;2.10;1.83;;;20.60;99.90;;;;;;5120093;28;20386;-56
2022/06/20 05:36:02;;;;;;;2.53;1.83;;;20.70;99.90;;;;;;5119661;28;20466;-53
2022/06/20 05:38:40;;;;;;;4.35;2.58;;;20.80;99.90;;;;;;5118178;28;20028;-61
2022/06/20 05:41:08;;;;;;;2.28;2.00;;;20.90;99.90;;;;;;5114884;28;20024;-60
2022/06/20 05:43:34;;;;;;;2.28;2.03;;;21.00;99.90;;;;;;5114733;28;20511;-59
2022/06/20 05:46:21;;;;;;;2.00;1.80;;;21.10;99.90;;;;;;5114896;28;20067;-60
2022/06/20 05:49:03;;;;;;;2.53;2.33;;;21.20;99.90;;;;;;5115461;28;20031;-56
2022/06/20 05:51:33;;;;;;;1.90;1.80;;;21.30;99.90;;;;;;5115138;28;20501;-57
2022/06/20 05:54:03;;;;;;;2.33;2.13;;;21.40;99.90;;;;;;5115770;28;20378;-57
2022/06/20 05:56:43;;;;;;;2.72;2.20;;;21.50;99.90;;;;;;5116543;28;20035;-60
2022/06/20 05:59:27;;;;;;;3.15;2.20;;;21.70;99.90;;;;;;5116038;28;20051;-59
2022/06/20 06:02:00;;;;;;;2.78;2.10;;;21.90;99.90;;;;;;5116126;28;20050;-59
2022/06/20 06:04:40;;;;;;;3.00;2.30;;;22.00;99.90;;;;;;5115908;28;20507;-60
2022/06/20 06:07:14;;;;;;;2.10;1.90;;;22.20;99.90;;;;;;5115986;28;20615;-54
2022/06/20 06:10:01;;;;;;;2.58;2.10;;;22.30;99.90;;;;;;5116162;28;20027;-57
2022/06/20 06:12:38;;;;;;;3.88;2.45;;;22.50;99.90;;;;;;5110955;28;20081;-55
2022/06/20 06:15:13;;;;;;;2.40;2.20;;;22.60;99.90;;;;;;5136334;27;20065;-58
2022/06/20 06:17:50;;;;;;;2.03;1.92;;;22.70;99.90;;;;;;5126115;27;20155;-57
2022/06/20 06:20:20;;;;;;;1.90;1.80;;;22.90;99.90;;;;;;5128122;27;20031;-59
2022/06/20 06:22:49;;;;;;;1.65;1.55;;;23.00;99.90;;;;;;5117027;27;20028;-59
2022/06/20 06:25:22;;;;;;;2.03;1.85;;;23.20;99.90;;;;;;5138441;27;20019;-53
2022/06/20 06:27:49;;;;;;;3.28;2.05;;;23.30;99.90;;;;;;5115549;27;20027;-58
2022/06/20 06:30:23;;;;;;;1.80;1.70;;;23.50;99.90;;;;;;5119926;27;20055;-57
2022/06/20 06:33:01;;;;;;;2.55;2.35;;;23.60;99.80;;;;;;5134583;27;20031;-53
2022/06/20 06:35:42;;;;;;;2.40;1.98;;;23.80;99.90;;;;;;5125852;27;20019;-54
2022/06/20 06:38:32;;;;;;;2.30;2.03;;;23.90;99.90;;;;;;5121031;27;20032;-58
2022/06/20 06:41:01;;;;;;;2.58;1.80;;;24.10;98.50;;;;;;5117001;27;20035;-60
2022/06/20 06:43:38;;;;;;;2.65;2.33;;;24.20;98.00;;;;;;5115270;28;20020;-53
2022/06/20 06:46:10;;;;;;;2.05;1.90;;;24.20;97.70;;;;;;5114324;28;20027;-61
2022/06/20 06:48:51;;;;;;;2.30;2.00;;;24.30;98.20;;;;;;5112941;28;20035;-56
2022/06/20 06:51:36;;;;;;;2.17;1.98;;;24.50;99.80;;;;;;5112595;28;20032;-59
2022/06/20 06:54:16;;;;;;;2.63;1.90;;;24.60;98.60;;;;;;5113239;28;20505;-59
2022/06/20 06:56:51;;;;;;;1.90;1.80;;;24.80;98.30;;;;;;5113483;28;20040;-57
2022/06/20 06:59:38;;;;;;;2.53;2.33;;;24.90;97.20;;;;;;5075353;28;20032;-56
2022/06/20 07:02:10;;;;;;;2.53;1.90;;;25.10;97.60;;;;;;5081964;28;20020;-56
2022/06/20 07:04:43;;;;;;;2.22;1.98;;;25.30;97.90;;;;;;5092203;28;20084;-58
2022/06/20 07:07:23;;;;;;;3.00;1.77;;;25.40;97.40;;;;;;5092818;28;20568;-59
2022/06/20 07:09:51;;;;;;;2.78;2.05;;;25.50;97.90;;;;;;5101352;28;20501;-58
2022/06/20 07:12:46;;;;;;;4.25;3.10;;;25.60;97.00;;;;;;5094689;28;20023;-62
2022/06/20 07:15:23;;;;;;;2.65;2.42;;;25.70;96.20;;;;;;5097470;28;20110;-61
2022/06/20 07:17:56;;;;;;;2.88;2.50;;;25.90;97.60;;;;;;5091916;28;20028;-57
2022/06/20 07:20:27;;;;;;;2.67;2.47;;;26.00;95.70;;;;;;5092722;28;20111;-58
2022/06/20 07:22:53;;;;;;;2.67;2.47;;;26.10;95.40;;;;;;5093091;28;20027;-52
2022/06/20 07:25:27;;;;;;;3.55;2.30;;;26.20;95.50;;;;;;5092238;28;20467;-58
2022/06/20 07:28:18;;;;;;;2.97;2.67;;;26.40;94.30;;;;;;5092525;28;20028;-61
2022/06/20 07:30:52;;;;;;;2.65;2.08;;;26.50;94.00;;;;;;5091349;28;20478;-54
2022/06/20 07:33:38;;;;;;;;;;;26.60;93.80;;;;;;5092323;28;20034;-55
2022/06/20 07:36:08;;;;;;;3.45;2.38;;;26.80;93.10;;;;;;5090475;28;19958;-60
2022/06/20 07:38:51;;;;;;;2.70;2.50;;;26.90;94.10;;;;;;5091852;28;20031;-59
2022/06/20 07:41:37;;;;;;;;;;;27.10;93.70;;;;;;5091747;28;20027;-55
2022/06/20 07:44:26;;;;;;;2.47;2.25;;;27.20;93.80;;;;;;5091337;28;19904;-59
2022/06/20 07:46:58;;;;;;;3.13;2.50;;;27.50;92.80;;;;;;5093409;28;20036;-58
2022/06/20 07:49:49;;;;;;;3.47;2.60;;;28.10;91.40;;;;;;5092941;28;20028;-56
2022/06/20 07:52:24;;;;;;;2.17;2.08;;;30.30;91.10;;;;;;5091993;28;20028;-62
2022/06/20 07:54:59;;;;;;;2.08;1.98;;;33.10;76.60;;;;;;5085672;28;20043;-58
2022/06/20 07:57:32;;;;;;;2.08;1.85;;;35.10;69.90;;;;;;5082926;28;20074;-63
2022/06/20 08:00:12;;;;;;;1.90;1.80;;;36.60;60.30;;;;;;5114898;27;20032;-57
2022/06/20 08:02:47;;;;;;;3.03;2.20;;;37.70;58.30;;;;;;5117174;27;20034;-55
2022/06/20 08:05:22;;;;;;;4.70;2.45;;;38.50;55.60;;;;;;5111936;28;20024;-61
2022/06/20 08:07:56;;;;;;;2.75;2.45;;;39.20;56.40;;;;;;5111283;28;20088;-58
2022/06/20 08:10:55;;;;;;;3.30;2.47;;;39.50;51.60;;;;;;5127304;27;20041;-53
2022/06/20 08:13:48;;;;;;;3.72;2.78;;;39.60;50.70;;;;;;5117237;27;20035;-58
2022/06/20 08:16:19;;;;;;;;;;;40.10;49.70;;;;;;5119184;27;20362;-60
2022/06/20 08:18:45;;;;;;;3.58;3.25;;;40.30;48.00;;;;;;5120241;27;19972;-58
2022/06/20 08:21:17;;;;;;;3.88;2.85;;;40.40;46.80;;;;;;5123380;27;20034;-60
2022/06/20 08:23:59;;;;;;;3.97;2.53;;;40.40;45.70;;;;;;5130800;27;20369;-62
2022/06/20 08:26:34;;;;;;;5.68;3.38;;;40.40;45.50;;;;;;5122958;27;20388;-59
2022/06/20 08:29:05;;;;;;;3.45;2.75;;;40.80;43.90;;;;;;5153121;27;20092;-54
2022/06/20 08:31:39;;;;;;;2.92;2.65;;;41.00;46.50;;;;;;5137753;27;20066;-52
2022/06/20 08:34:16;;;;;;;2.88;2.67;;;41.00;42.50;;;;;;5128749;28;20469;-54
2022/06/20 08:36:55;;;;;;;3.80;2.42;;;41.00;43.80;;;;;;5129129;28;20114;-60
2022/06/20 08:39:24;;;;;;;2.95;2.75;;;40.90;42.20;;;;;;5129891;28;20019;-57
2022/06/20 08:42:01;;;;;;;2.95;2.65;;;40.70;42.40;;;;;;5132375;28;20022;-53
2022/06/20 08:44:35;;;;;;;4.07;2.65;;;40.90;42.10;;;;;;5131568;28;20026;-56
2022/06/20 08:47:09;;;;;;;2.95;2.70;;;40.90;40.50;;;;;;5130755;28;20058;-59
2022/06/20 08:49:54;;;;;;;2.88;2.58;;;40.60;41.60;;;;;;5130111;28;20034;-60
2022/06/20 08:52:34;;;;;;;3.35;2.60;;;40.60;42.30;;;;;;5128586;28;20027;-61
2022/06/20 08:55:35;;;;;;;3.22;2.92;;;40.70;42.90;;;;;;5128431;28;20098;-59
2022/06/20 08:58:01;;;;;;;4.55;2.75;;;40.50;40.10;;;;;;5085566;28;20039;-61
2022/06/20 09:00:48;;;;;;;3.58;2.60;;;40.60;40.70;;;;;;5130348;28;20377;-53
2022/06/20 09:03:19;;;;;;;2.55;2.35;;;40.50;44.40;;;;;;5131071;28;20023;-55
2022/06/20 09:06:09;;;;;;;2.60;2.40;;;40.70;44.60;;;;;;5132104;28;20012;-57
2022/06/20 09:09:13;;;;;;;2.60;2.40;;;40.80;41.10;;;;;;5131776;28;20019;-61
2022/06/20 09:11:39;;;;;;;3.03;2.63;;;41.10;42.00;;;;;;5124047;28;20096;-59
2022/06/20 09:14:19;;;;;;;4.90;3.30;;;41.00;41.80;;;;;;5125519;27;20501;-57
2022/06/20 09:16:51;;;;;;;4.60;2.92;;;41.10;42.50;;;;;;5135519;27;20063;-55
2022/06/20 09:19:19;;;;;;;5.55;3.00;;;40.90;42.00;;;;;;5123994;27;20024;-57
2022/06/20 09:21:53;;;;;;;8.05;3.65;;;40.70;41.70;;;;;;5121408;27;20015;-63
2022/06/20 09:24:45;;;;;;;5.00;3.78;;;40.80;46.30;;;;;;5133116;27;20068;-61
2022/06/20 09:27:21;;;;;;;5.70;3.67;;;40.70;44.50;;;;;;5134196;27;20011;-58
2022/06/20 09:29:59;;;;;;;7.90;4.25;;;40.90;44.90;;;;;;5136178;27;20027;-60
2022/06/20 09:32:43;;;;;;;5.97;4.22;;;40.70;42.00;;;;;;5136840;27;20090;-55
2022/06/20 09:35:33;;;;;;;3.40;3.10;;;40.50;41.20;;;;;;5137248;27;20470;-60
2022/06/20 09:38:36;;;;;;;3.90;3.25;;;40.70;40.20;;;;;;5136516;27;20039;-57
2022/06/20 09:41:14;;;;;;;3.53;3.17;;;40.60;41.10;;;;;;5134960;27;20027;-62
2022/06/20 09:44:11;;;;;;;3.88;3.40;;;40.90;41.00;;;;;;5135542;27;20046;-59
2022/06/20 09:46:45;;;;;;;5.57;3.33;;;40.80;41.00;;;;;;5134418;27;20030;-60
2022/06/20 09:49:29;;;;;;;5.85;4.05;;;40.90;42.00;;;;;;5134321;27;20023;-58
2022/06/20 09:52:07;;;;;;;4.38;3.55;;;40.70;42.00;;;;;;5126872;27;20023;-59
2022/06/20 09:54:54;;;;;;;3.40;3.10;;;40.70;40.40;;;;;;5121580;27;20079;-63
2022/06/20 09:57:26;;;;;;;6.43;4.25;;;40.80;43.20;;;;;;5129394;27;20511;-61
2022/06/20 10:00:04;;;;;;;7.30;3.67;;;40.50;39.00;;;;;;5147811;27;20071;-61
2022/06/20 10:02:39;;;;;;;4.28;3.72;;;40.40;40.30;;;;;;5123856;27;20501;-58
2022/06/20 10:05:42;;;;;;;4.85;3.55;;;40.40;40.40;;;;;;5134425;27;20067;-56
2022/06/20 10:08:31;;;;;;;4.38;3.40;;;40.60;41.30;;;;;;5135839;27;20015;-59
2022/06/20 10:11:24;;;;;;;6.40;4.18;;;40.70;39.60;;;;;;5133968;27;20028;-60
2022/06/20 10:14:24;;;;;;;5.95;3.85;;;40.50;39.70;;;;;;5133845;27;20118;-57
2022/06/20 10:17:12;;;;;;;5.40;3.85;;;40.60;40.70;;;;;;5132574;27;20031;-57
2022/06/20 10:19:47;;;;;;;4.70;3.53;;;40.60;41.90;;;;;;5132545;27;20473;-59
2022/06/20 10:22:49;;;;;;;8.25;4.65;;;40.70;42.20;;;;;;5131604;27;20058;-56
2022/06/20 10:25:27;;;;;;;6.60;4.38;;;40.40;40.80;;;;;;5132294;27;20028;-59
2022/06/20 10:28:09;;;;;;;7.75;4.15;;;40.40;41.60;;;;;;5120977;27;20031;-51
2022/06/20 10:30:43;;;;;;;5.57;4.18;;;40.10;40.80;;;;;;5114046;27;20028;-56
2022/06/20 10:33:52;;;;;;;6.13;4.07;;;40.20;38.50;;;;;;5113416;28;20028;-59
2022/06/20 10:36:21;;;;;;;4.22;3.83;;;40.00;41.00;;;;;;5084344;28;20494;-56
2022/06/20 10:39:07;;;;;;;5.53;3.65;;;40.10;39.10;;;;;;5113866;28;20116;-60
2022/06/20 10:41:58;;;;;;;4.95;3.40;;;40.10;42.10;;;;;;5095685;28;20023;-58
2022/06/20 10:44:29;;;;;;;3.45;2.70;;;40.10;39.40;;;;;;5112950;28;20054;-57
2022/06/20 10:47:20;;;;;;;3.78;3.30;;;40.10;36.40;;;;;;5120497;27;20023;-62
2022/06/20 10:50:01;;;;;;;3.25;2.88;;;40.20;39.80;;;;;;5122694;27;20110;-54
2022/06/20 10:52:42;;;;;;;2.95;2.50;;;40.40;38.90;;;;;;5150336;27;20026;-55
2022/06/20 10:55:22;;;;;;;2.40;2.20;;;40.20;36.80;;;;;;5141721;27;20161;-58
2022/06/20 10:57:59;;;;;;;2.22;2.03;;;40.20;36.80;;;;;;5121981;27;20043;-57
2022/06/20 11:00:27;;;;;;;3.00;2.50;;;40.20;36.10;;;;;;5130815;27;20029;-60
2022/06/20 11:03:02;;;;;;;2.45;2.08;;;40.20;37.00;;;;;;5122328;27;20039;-56
2022/06/20 11:05:33;;;;;;;3.22;2.00;;;40.10;36.70;;;;;;5125582;27;20525;-58
2022/06/20 11:08:17;;;;;;;;;;;40.40;38.50;;;;;;5156727;27;20074;-60
2022/06/20 11:10:43;;;;;;;6.82;3.50;;;40.40;37.10;;;;;;5155058;27;19903;-59
2022/06/20 11:13:37;;;;;;;3.95;3.20;;;40.30;37.70;;;;;;5142362;27;20367;-59
2022/06/20 11:16:21;;;;;;;6.45;3.38;;;40.40;37.90;;;;;;5120501;27;20020;-59
2022/06/20 11:19:02;;;;;;;3.63;3.05;;;40.40;39.80;;;;;;5117961;27;20470;-59
2022/06/20 11:21:59;;;;;;;3.90;3.05;;;40.40;38.40;;;;;;5111023;28;20032;-59
2022/06/20 11:25:06;;;;;;;4.50;2.67;;;40.50;37.60;;;;;;5111314;28;20020;-59
2022/06/20 11:27:50;;;;;;;2.45;2.25;;;40.60;40.50;;;;;;5030868;28;20025;-59
2022/06/20 11:30:36;;;;;;;2.80;2.60;;;40.70;37.80;;;;;;5111181;28;20561;-59
2022/06/20 11:36:29;;;;;;;2.08;1.98;;;40.70;36.30;;;;;;5116699;27;20025;-59
2022/06/20 11:39:12;;;;;;;2.13;1.85;;;40.60;34.10;;;;;;5120997;27;20111;-59
2022/06/20 11:41:50;;;;;;;1.98;1.88;;;40.60;38.20;;;;;;5121131;27;20019;-59
2022/06/20 11:44:39;;;;;;;2.33;1.98;;;40.50;34.10;;;;;;5122679;27;20028;-60
2022/06/20 11:47:46;;;;;;;2.05;1.85;;;40.40;34.90;;;;;;5115081;27;20030;-59
2022/06/20 11:50:54;;;;;;;1.80;1.70;;;40.20;33.20;;;;;;5031588;28;20065;-59
2022/06/20 11:53:38;;;;;;;2.70;1.92;;;40.20;36.90;;;;;;5002434;28;20037;-59
2022/06/20 11:56:22;;;;;;;1.90;1.80;;;40.40;37.30;;;;;;5100753;28;20090;-60
2022/06/20 11:58:57;;;;;;;2.78;2.30;;;40.50;34.80;;;;;;5111616;28;20035;-59
2022/06/20 12:01:32;;;;;;;3.33;2.28;;;40.40;36.60;;;;;;5112206;28;20043;-60
2022/06/20 12:04:22;;;;;;;2.90;2.17;;;40.40;37.20;;;;;;5112363;28;20024;-60
2022/06/20 12:07:19;;;;;;;2.25;2.13;;;40.40;37.90;;;;;;5113137;28;20488;-59
2022/06/20 12:09:54;;;;;;;3.33;2.42;;;40.30;37.90;;;;;;5111894;28;20024;-59
2022/06/20 12:12:37;;;;;;;2.78;2.60;;;40.30;37.70;;;;;;5112145;28;20051;-60
2022/06/20 12:15:33;;;;;;;3.10;2.80;;;40.30;35.80;;;;;;5112201;28;20032;-60
2022/06/20 12:18:22;;;;;;;2.80;2.60;;;40.20;34.80;;;;;;5112457;28;20020;-60
2022/06/20 12:23:48;;;;;;;3.20;2.92;;;40.10;35.00;;;;;;5111843;28;20022;-59
2022/06/20 12:26:31;;;;;;;3.20;3.00;;;40.10;37.40;;;;;;5111840;28;20080;-60
2022/06/20 12:28:59;;;;;;;4.15;3.65;;;40.20;38.10;;;;;;5111301;28;20485;-60
2022/06/20 12:31:45;;;;;;;3.80;3.50;;;40.20;39.00;;;;;;5111739;28;20077;-59
2022/06/20 12:34:10;;;;;;;4.10;3.78;;;40.00;37.30;;;;;;5111619;28;20681;-59
2022/06/20 12:36:54;;;;;;;4.38;3.97;;;40.00;38.70;;;;;;5111452;28;20027;-59
2022/06/20 12:39:27;;;;;;;4.22;3.80;;;39.90;37.50;;;;;;5111419;28;20493;-59
2022/06/20 12:42:05;;;;;;;3.60;3.30;;;39.80;38.00;;;;;;5113141;28;20031;-58
2022/06/20 12:44:49;;;;;;;3.95;3.65;;;39.90;38.40;;;;;;5113556;28;20061;-60
2022/06/20 12:47:41;;;;;;;4.97;3.90;;;40.20;36.80;;;;;;5113490;28;20106;-59
2022/06/20 12:50:24;;;;;;;4.50;3.65;;;40.20;39.30;;;;;;5117911;28;20050;-59
2022/06/20 12:53:13;;;;;;;4.13;3.72;;;40.40;39.10;;;;;;5117458;28;20024;-59
2022/06/20 12:56:00;;;;;;;4.03;3.42;;;40.50;39.00;;;;;;5117523;28;20028;-59
2022/06/20 12:58:43;;;;;;;5.00;3.35;;;40.70;38.80;;;;;;5117190;28;20043;-60
2022/06/20 13:01:20;;;;;;;3.80;3.47;;;40.70;40.00;;;;;;5117491;28;20026;-60
2022/06/20 13:04:07;;;;;;;4.53;3.10;;;40.70;34.40;;;;;;5117402;28;20349;-59
2022/06/20 13:06:44;;;;;;;3.50;2.58;;;40.60;38.20;;;;;;5117184;28;20057;-58
2022/06/20 13:09:47;;;;;;;2.60;2.10;;;40.60;34.90;;;;;;5117443;28;20031;-59
2022/06/20 13:12:29;;;;;;;2.65;2.42;;;40.70;38.00;;;;;;5117357;28;20081;-60
2022/06/20 13:15:32;;;;;;;2.10;2.00;;;40.70;37.90;;;;;;5117176;28;20032;-59
2022/06/20 13:18:01;;;;;;;4.25;2.58;;;40.30;38.10;;;;;;5117081;28;20026;-59
2022/06/20 13:20:32;;;;;;;2.85;1.85;;;40.20;40.20;;;;;;5116785;28;20026;-59
2022/06/20 13:23:04;;;;;;;;;;;40.30;39.80;;;;;;5117576;28;20019;-59
2022/06/20 13:25:35;;;;;;;;;;;40.40;36.80;;;;;;5117671;28;19927;-60
2022/06/20 13:28:20;;;;;;;3.25;2.30;;;40.10;36.50;;;;;;5117244;28;19908;-59
2022/06/20 13:31:09;;;;;;;2.20;2.10;;;40.00;35.70;;;;;;5117168;28;20027;-59
2022/06/20 13:33:53;;;;;;;2.47;2.30;;;40.00;37.70;;;;;;5116930;28;20478;-60
2022/06/20 13:36:33;;;;;;;2.65;2.10;;;40.10;36.20;;;;;;5116792;28;20432;-59
2022/06/20 13:39:19;;;;;;;2.42;2.08;;;40.20;38.80;;;;;;5116683;28;20030;-59
2022/06/20 13:41:47;;;;;;;2.08;1.98;;;40.20;38.10;;;;;;5116686;28;20118;-60
2022/06/20 13:44:27;;;;;;;1.90;1.80;;;40.20;38.60;;;;;;5116635;28;20103;-59
2022/06/20 13:47:16;;;;;;;2.17;2.08;;;40.40;37.80;;;;;;5116777;28;20363;-60
2022/06/20 13:49:54;;;;;;;2.35;2.15;;;40.50;42.50;;;;;;5087909;28;20435;-59
2022/06/20 13:52:45;;;;;;;2.30;2.20;;;40.40;39.70;;;;;;5116465;28;20024;-59